Burden, Kansas
Current Conditions -  °F | °C
As of 9:54 PM on Friday 28 Nov 2014 (Local Time) from KWLD Reporting Station
Clear Clear  
Wind Chill: 54°   Ceiling: Unl
Heat Index: 54°   Visibility: 10mi
Dew Point: 42°   Wind: 13mph
Humidity: 64%   Direction: 170°S
Pressure: 29.8"   Gusts: NA
Location:  37.31°N, 96.75°W
Report Text: KWLD 290354Z AUTO 17011KT 10SM CLR 12/06 A2980 RMK AO2 SLP090 T01220056
Loading
Personal Weather Stations






























Interactive Weather Map New forecast layout! Learn more

10-Day Weather Forecast

Advertisements
Track Severe Weather on mobile